createdAt,value
2019-05-09T00:02:38.027Z,78.77
2019-05-09T00:05:07.692Z,79.37
2019-05-09T00:07:39.305Z,81.63
2019-05-09T00:10:08.787Z,81.65
2019-05-09T00:12:37.854Z,80.29
2019-05-09T00:15:08.708Z,79.91
2019-05-09T00:17:38.004Z,81.00
2019-05-09T00:20:33.060Z,81.43
2019-05-09T00:23:03.324Z,81.09
2019-05-09T00:25:34.993Z,81.79
2019-05-09T00:28:07.137Z,81.97
2019-05-09T00:30:54.771Z,82.07
2019-05-09T00:33:30.986Z,80.87
2019-05-09T00:36:00.164Z,81.30
2019-05-09T00:38:55.447Z,81.04
2019-05-09T00:41:29.086Z,80.63
2019-05-09T00:44:05.374Z,80.55
2019-05-09T00:46:43.109Z,80.83
2019-05-09T00:49:17.042Z,80.61
2019-05-09T00:51:49.122Z,81.28
2019-05-09T00:54:24.012Z,82.62
2019-05-09T00:56:54.245Z,82.20
2019-05-09T00:59:24.071Z,81.49
2019-05-09T01:01:54.290Z,80.41
2019-05-09T01:04:24.298Z,80.72
2019-05-09T01:06:54.094Z,80.46
2019-05-09T01:09:24.192Z,80.37
2019-05-09T01:11:53.539Z,80.04
2019-05-09T01:14:23.612Z,79.44
2019-05-09T01:16:54.842Z,79.17
2019-05-09T01:19:28.521Z,80.26
2019-05-09T01:21:57.574Z,79.11
2019-05-09T01:24:27.098Z,79.18
2019-05-09T01:27:03.599Z,79.73
2019-05-09T01:29:34.332Z,80.49
2019-05-09T01:32:14.378Z,80.90
2019-05-09T01:34:43.746Z,80.09
2019-05-09T01:37:14.136Z,80.12
2019-05-09T01:39:46.560Z,79.31
2019-05-09T01:42:15.787Z,79.73
2019-05-09T01:44:45.136Z,79.35
2019-05-09T01:47:15.763Z,78.90
2019-05-09T01:49:47.551Z,77.10
2019-05-09T01:52:16.679Z,76.30
2019-05-09T01:54:47.425Z,76.08
2019-05-09T01:57:16.541Z,75.88
2019-05-09T01:59:48.079Z,76.59
2019-05-09T02:02:17.991Z,76.14
2019-05-09T02:04:47.088Z,77.49
2019-05-09T02:07:16.232Z,77.53
2019-05-09T02:09:45.305Z,77.99
2019-05-09T02:12:14.391Z,78.63
2019-05-09T02:14:50.350Z,78.77
2019-05-09T02:17:54.146Z,78.50
2019-05-09T02:20:16.483Z,77.99
2019-05-09T02:22:45.558Z,77.40
2019-05-09T02:25:16.254Z,77.33
2019-05-09T02:27:48.108Z,77.02
2019-05-09T02:30:18.714Z,76.41
2019-05-09T02:32:47.837Z,77.69
2019-05-09T02:35:16.937Z,77.62
2019-05-09T02:37:49.569Z,77.12
2019-05-09T02:40:24.819Z,76.06
2019-05-09T02:43:00.033Z,76.78
2019-05-09T02:45:33.710Z,77.93
2019-05-09T02:48:05.227Z,78.37
2019-05-09T02:50:38.414Z,77.78
2019-05-09T02:53:09.754Z,76.77
2019-05-09T02:55:38.876Z,77.92
2019-05-09T02:58:13.259Z,78.65
2019-05-09T03:00:53.472Z,78.58
2019-05-09T03:03:33.032Z,78.80
2019-05-09T03:06:02.206Z,77.51
2019-05-09T03:08:33.012Z,78.64
2019-05-09T03:11:03.430Z,78.89
2019-05-09T03:13:32.815Z,80.23
2019-05-09T03:16:14.714Z,80.82
2019-05-09T03:18:43.763Z,81.00
2019-05-09T03:21:21.873Z,80.07
2019-05-09T03:23:53.208Z,79.67
2019-05-09T03:26:29.078Z,78.92
2019-05-09T03:29:08.823Z,79.25
2019-05-09T03:31:41.408Z,79.11
2019-05-09T03:34:10.454Z,77.66
2019-05-09T03:36:39.514Z,77.53
2019-05-09T03:39:11.454Z,77.60
2019-05-09T03:41:40.870Z,76.75
2019-05-09T03:44:10.351Z,75.87
2019-05-09T03:47:04.123Z,75.58
2019-05-09T03:49:38.248Z,74.57
2019-05-09T03:52:08.158Z,75.19
2019-05-09T03:54:38.663Z,73.95
2019-05-09T03:57:28.222Z,72.06
2019-05-09T03:59:58.424Z,70.01
2019-05-09T04:02:28.969Z,69.69
2019-05-09T04:04:58.110Z,69.67
2019-05-09T04:07:27.770Z,69.93
2019-05-09T04:09:58.566Z,71.91
2019-05-09T04:12:28.325Z,71.47
2019-05-09T04:14:58.439Z,71.51
2019-05-09T04:17:42.910Z,71.40
2019-05-09T04:20:13.236Z,72.30
2019-05-09T04:22:42.333Z,67.64
2019-05-09T04:25:18.069Z,67.86
2019-05-09T04:27:52.906Z,67.68
2019-05-09T04:30:23.079Z,65.59
2019-05-09T04:32:53.244Z,65.24
2019-05-09T04:35:23.387Z,65.99
2019-05-09T04:37:52.423Z,70.03
2019-05-09T04:40:24.426Z,71.75
2019-05-09T04:43:10.859Z,71.92
2019-05-09T04:45:42.755Z,74.02
2019-05-09T04:48:31.854Z,74.94
2019-05-09T04:51:03.490Z,73.39
2019-05-09T04:53:32.708Z,75.41
2019-05-09T04:56:11.929Z,75.93
2019-05-09T04:58:42.714Z,74.74
2019-05-09T05:01:20.520Z,74.79
2019-05-09T05:03:53.702Z,74.98
2019-05-09T05:06:22.751Z,74.40
2019-05-09T05:08:52.672Z,73.77
2019-05-09T05:11:21.787Z,73.33
2019-05-09T05:13:50.856Z,74.11
2019-05-09T05:16:20.272Z,75.62
2019-05-09T05:18:53.016Z,78.06
2019-05-09T05:21:23.466Z,77.95
2019-05-09T05:24:14.789Z,76.95
2019-05-09T05:26:44.532Z,78.11
2019-05-09T05:29:17.501Z,78.65
2019-05-09T05:31:50.089Z,77.23
2019-05-09T05:34:37.793Z,77.62
2019-05-09T05:37:08.733Z,76.59
2019-05-09T05:39:38.998Z,76.04
2019-05-09T05:42:13.668Z,77.13
2019-05-09T05:44:49.397Z,76.93
2019-05-09T05:47:33.054Z,75.88
2019-05-09T05:50:05.591Z,75.34
2019-05-09T05:52:43.800Z,75.52
2019-05-09T05:55:12.978Z,76.14
2019-05-09T05:57:42.177Z,75.90
2019-05-09T06:00:18.159Z,76.39
2019-05-09T06:02:48.102Z,77.11
2019-05-09T06:05:18.710Z,75.88
2019-05-09T06:07:48.441Z,75.50
2019-05-09T06:10:18.598Z,76.03
2019-05-09T06:12:48.393Z,74.80
2019-05-09T06:15:18.396Z,75.52
2019-05-09T06:17:48.557Z,74.65
2019-05-09T06:20:18.038Z,74.54
2019-05-09T06:22:48.877Z,74.80
2019-05-09T06:25:20.875Z,75.09
2019-05-09T06:27:52.039Z,76.49
2019-05-09T06:30:31.145Z,76.52
2019-05-09T06:33:04.635Z,75.98
2019-05-09T06:35:37.905Z,75.69
2019-05-09T06:38:08.139Z,75.72
2019-05-09T06:40:39.503Z,74.78
2019-05-09T06:43:19.325Z,73.44
2019-05-09T06:46:07.942Z,73.83
2019-05-09T06:48:38.457Z,72.82
2019-05-09T06:51:10.134Z,72.11
2019-05-09T06:53:43.755Z,72.58
2019-05-09T06:56:17.834Z,73.37
2019-05-09T06:58:55.448Z,73.09
2019-05-09T07:01:44.949Z,72.56
2019-05-09T07:04:51.162Z,73.00
2019-05-09T07:07:44.237Z,73.17
2019-05-09T07:10:19.886Z,72.71
2019-05-09T07:12:49.268Z,70.98
2019-05-09T07:15:28.282Z,69.61
2019-05-09T07:17:59.902Z,70.79
2019-05-09T07:20:29.114Z,69.43
2019-05-09T07:22:59.483Z,70.18
2019-05-09T07:25:44.257Z,69.95
2019-05-09T07:28:13.605Z,69.64
2019-05-09T07:31:08.140Z,68.38
2019-05-09T07:33:48.832Z,67.14
2019-05-09T07:36:18.938Z,67.42
2019-05-09T07:38:48.759Z,69.12
2019-05-09T07:41:17.967Z,68.09
2019-05-09T07:43:52.284Z,66.53
2019-05-09T07:46:28.835Z,68.02
2019-05-09T07:49:13.643Z,68.89
2019-05-09T07:51:47.749Z,69.05
2019-05-09T07:54:24.740Z,68.70
2019-05-09T07:56:53.004Z,69.16
2019-05-09T07:59:23.930Z,69.31
2019-05-09T08:01:53.055Z,69.51
2019-05-09T08:04:22.160Z,69.34
2019-05-09T08:06:51.229Z,69.11
2019-05-09T08:09:20.527Z,70.32
2019-05-09T08:11:50.630Z,72.37
2019-05-09T08:14:21.113Z,72.04
2019-05-09T08:16:50.433Z,72.86
2019-05-09T08:19:22.517Z,75.04
2019-05-09T08:21:51.573Z,75.01
2019-05-09T08:24:22.218Z,75.15
2019-05-09T08:26:55.184Z,74.75
2019-05-09T08:29:28.161Z,74.80
2019-05-09T08:32:03.853Z,74.55
2019-05-09T08:34:33.931Z,75.49
2019-05-09T08:37:02.976Z,75.97
2019-05-09T08:39:32.030Z,75.19
2019-05-09T08:42:02.481Z,75.69
2019-05-09T08:44:38.274Z,75.64
2019-05-09T08:47:14.585Z,76.00
2019-05-09T08:49:55.621Z,75.66
2019-05-09T08:52:25.764Z,75.87
2019-05-09T08:54:57.893Z,76.64
2019-05-09T08:57:29.538Z,77.59
2019-05-09T08:59:59.084Z,77.86
2019-05-09T09:02:28.521Z,77.99
2019-05-09T09:04:58.538Z,78.11
2019-05-09T09:07:29.713Z,78.21
2019-05-09T09:09:59.047Z,77.98
2019-05-09T09:12:34.230Z,75.68
2019-05-09T09:15:02.284Z,76.02
2019-05-09T09:17:33.489Z,76.56
2019-05-09T09:20:07.535Z,77.05
2019-05-09T09:22:39.601Z,74.82
2019-05-09T09:25:11.225Z,74.54
2019-05-09T09:27:40.551Z,74.09
2019-05-09T09:30:20.397Z,73.90
2019-05-09T09:32:44.068Z,74.89
2019-05-09T09:35:14.818Z,74.35
2019-05-09T09:37:49.505Z,75.08
2019-05-09T09:40:17.723Z,73.11
2019-05-09T09:42:49.166Z,73.06
2019-05-09T09:45:22.627Z,72.34
2019-05-09T09:47:59.276Z,72.11
2019-05-09T09:50:30.857Z,70.95
2019-05-09T09:53:00.199Z,69.97
2019-05-09T09:55:29.304Z,70.66
2019-05-09T09:57:58.436Z,70.66
2019-05-09T10:01:08.839Z,70.17
2019-05-09T10:03:39.310Z,70.01
2019-05-09T10:06:08.365Z,69.91
2019-05-09T10:08:39.651Z,70.52
2019-05-09T10:11:09.889Z,69.68
2019-05-09T10:13:39.152Z,70.02
2019-05-09T10:16:33.294Z,70.00
2019-05-09T10:19:22.366Z,70.33
2019-05-09T10:21:54.841Z,68.65
2019-05-09T10:24:24.703Z,68.27
2019-05-09T10:27:09.519Z,68.21
2019-05-09T10:29:47.985Z,67.52
2019-05-09T10:32:18.150Z,68.20
2019-05-09T10:34:48.792Z,66.61
2019-05-09T10:37:18.648Z,67.15
2019-05-09T10:39:50.936Z,67.38
2019-05-09T10:42:28.632Z,66.57
2019-05-09T10:45:14.617Z,67.65
2019-05-09T10:47:48.449Z,66.74
2019-05-09T10:50:19.397Z,66.86
2019-05-09T10:52:52.361Z,67.33
2019-05-09T10:55:22.097Z,66.06
2019-05-09T10:57:53.023Z,65.92
2019-05-09T11:00:25.811Z,66.51
2019-05-09T11:02:58.180Z,66.45
2019-05-09T11:05:27.785Z,66.63
2019-05-09T11:07:58.842Z,66.76
2019-05-09T11:10:32.821Z,67.24
2019-05-09T11:13:00.905Z,67.87
2019-05-09T11:15:30.284Z,68.12
2019-05-09T11:18:00.524Z,69.47
2019-05-09T11:20:29.575Z,71.51
2019-05-09T11:23:01.155Z,74.36
2019-05-09T11:25:30.601Z,75.74
2019-05-09T11:28:10.972Z,77.21
2019-05-09T11:30:38.559Z,78.61
2019-05-09T11:33:11.010Z,79.17
2019-05-09T11:35:44.365Z,80.24
2019-05-09T11:38:13.598Z,80.75
2019-05-09T11:40:51.254Z,81.49
2019-05-09T11:43:22.662Z,81.21
2019-05-09T11:45:51.867Z,81.33
2019-05-09T11:48:21.094Z,81.25
2019-05-09T11:50:52.824Z,81.61
2019-05-09T11:53:24.706Z,82.33
2019-05-09T11:56:08.131Z,82.88
2019-05-09T11:58:39.902Z,82.92
2019-05-09T12:01:23.080Z,83.84
2019-05-09T12:03:52.618Z,84.19
2019-05-09T12:06:30.595Z,83.29
2019-05-09T12:09:03.210Z,83.82
2019-05-09T12:11:32.572Z,84.66
2019-05-09T12:14:02.833Z,84.38
2019-05-09T12:16:33.813Z,83.55
2019-05-09T12:19:05.274Z,84.84
2019-05-09T12:21:47.639Z,84.72
2019-05-09T12:24:14.720Z,84.40
2019-05-09T12:26:44.083Z,85.00
2019-05-09T12:29:15.201Z,84.94
2019-05-09T12:31:48.319Z,84.99
2019-05-09T12:34:18.941Z,85.11
2019-05-09T12:36:49.509Z,85.09
2019-05-09T12:39:18.792Z,85.62
2019-05-09T12:41:48.717Z,85.12
2019-05-09T12:44:20.498Z,85.28
2019-05-09T12:46:49.531Z,84.90
2019-05-09T12:49:19.900Z,84.08
2019-05-09T12:51:50.778Z,84.26
2019-05-09T12:54:24.128Z,84.28
2019-05-09T12:56:55.518Z,84.87
2019-05-09T12:59:24.597Z,85.20
2019-05-09T13:01:53.654Z,85.13
2019-05-09T13:04:22.993Z,84.29
2019-05-09T13:06:53.466Z,84.21
2019-05-09T13:09:31.466Z,84.26
2019-05-09T13:12:00.646Z,84.88
2019-05-09T13:14:38.005Z,83.99
2019-05-09T13:17:10.887Z,84.55
2019-05-09T13:19:47.876Z,85.53
2019-05-09T13:22:18.470Z,85.01
2019-05-09T13:24:47.561Z,85.11
2019-05-09T13:27:18.995Z,84.50
2019-05-09T13:29:49.301Z,85.11
2019-05-09T13:32:20.133Z,85.97
2019-05-09T13:34:53.816Z,86.04
2019-05-09T13:37:30.291Z,86.34
2019-05-09T13:40:08.372Z,86.58
2019-05-09T13:42:39.537Z,86.52
2019-05-09T13:45:08.442Z,86.44
2019-05-09T13:47:42.707Z,86.92
2019-05-09T13:50:12.273Z,86.02
2019-05-09T13:52:43.237Z,87.17
2019-05-09T13:55:14.682Z,86.81
2019-05-09T13:57:43.773Z,86.37
2019-05-09T14:03:01.698Z,86.17
2019-05-09T14:05:32.732Z,83.86
2019-05-09T14:08:11.869Z,82.40
2019-05-09T14:10:43.129Z,83.50
2019-05-09T14:13:19.089Z,82.58
2019-05-09T14:15:50.239Z,82.42
2019-05-09T14:18:19.751Z,82.38
2019-05-09T14:20:48.748Z,82.69
2019-05-09T14:23:19.171Z,82.26
2019-05-09T14:25:54.512Z,81.74
2019-05-09T14:28:28.716Z,81.65
2019-05-09T14:30:59.431Z,82.48
2019-05-09T14:33:29.625Z,81.91
2019-05-09T14:36:01.863Z,81.53
2019-05-09T14:38:33.959Z,81.51
2019-05-09T14:41:09.087Z,81.03
2019-05-09T14:43:44.149Z,81.26
2019-05-09T14:46:13.218Z,81.45
2019-05-09T14:48:45.081Z,81.72
2019-05-09T14:51:18.650Z,81.92
2019-05-09T14:53:54.414Z,82.74
2019-05-09T14:56:23.516Z,82.62
2019-05-09T14:58:52.543Z,83.96
2019-05-09T15:01:21.639Z,83.24
2019-05-09T15:03:50.710Z,83.43
2019-05-09T15:06:19.789Z,84.49
2019-05-09T15:08:48.872Z,84.32
2019-05-09T15:11:18.377Z,84.02
2019-05-09T15:13:50.400Z,83.84
2019-05-09T15:16:24.053Z,83.40
2019-05-09T15:18:53.102Z,83.24
2019-05-09T15:21:22.573Z,82.05
2019-05-09T15:23:52.066Z,82.16
2019-05-09T15:26:21.619Z,82.66
2019-05-09T15:28:52.388Z,81.40
2019-05-09T15:31:21.817Z,82.05
2019-05-09T15:33:50.907Z,81.50
2019-05-09T15:36:22.562Z,82.00
2019-05-09T15:39:01.868Z,81.51
2019-05-09T15:41:22.522Z,81.21
2019-05-09T15:43:52.637Z,81.32
2019-05-09T15:46:38.407Z,80.30
2019-05-09T15:49:19.810Z,80.47
2019-05-09T15:51:48.895Z,81.17
2019-05-09T15:54:18.079Z,80.05
2019-05-09T15:56:48.354Z,79.46
2019-05-09T15:59:20.760Z,79.37
2019-05-09T16:01:51.908Z,79.29
2019-05-09T16:04:21.160Z,79.66
2019-05-09T16:06:51.666Z,79.73
2019-05-09T16:09:23.802Z,79.96
2019-05-09T16:11:54.639Z,79.32
2019-05-09T16:14:23.671Z,79.47
2019-05-09T16:16:54.813Z,79.71
2019-05-09T16:19:23.858Z,78.89
2019-05-09T16:21:53.335Z,79.50
2019-05-09T16:24:22.398Z,78.30
2019-05-09T16:26:54.286Z,78.52
2019-05-09T16:29:31.959Z,77.75
2019-05-09T16:32:04.404Z,77.68
2019-05-09T16:34:38.544Z,77.04
2019-05-09T16:37:09.847Z,77.02
2019-05-09T16:39:41.926Z,77.24
2019-05-09T16:42:12.129Z,75.97
2019-05-09T16:44:41.869Z,76.45
2019-05-09T16:47:11.163Z,76.24
2019-05-09T16:49:40.820Z,75.96
2019-05-09T16:52:10.429Z,74.99
2019-05-09T16:54:44.401Z,76.03
2019-05-09T16:57:13.681Z,76.67
2019-05-09T16:59:43.043Z,76.20
2019-05-09T17:02:21.815Z,76.30
2019-05-09T17:04:48.247Z,76.89
2019-05-09T17:07:19.063Z,76.32
2019-05-09T17:09:49.222Z,76.63
2019-05-09T17:12:18.708Z,76.51
2019-05-09T17:14:47.965Z,76.20
2019-05-09T17:17:17.914Z,74.83
2019-05-09T17:19:48.057Z,74.88
2019-05-09T17:22:35.618Z,74.51
2019-05-09T17:25:10.078Z,74.58
2019-05-09T17:27:42.503Z,75.19
2019-05-09T17:30:11.659Z,74.78
2019-05-09T17:32:40.754Z,75.26
2019-05-09T17:35:11.327Z,74.28
2019-05-09T17:37:40.891Z,74.94
2019-05-09T17:40:11.803Z,74.87
2019-05-09T17:42:40.870Z,74.82
2019-05-09T17:45:09.929Z,74.42
2019-05-09T17:47:40.055Z,73.83
2019-05-09T17:50:09.240Z,74.19
2019-05-09T17:52:42.833Z,74.37
2019-05-09T17:55:11.963Z,74.59
2019-05-09T17:57:41.992Z,75.96
2019-05-09T18:00:12.432Z,76.85
2019-05-09T18:02:48.435Z,77.44
2019-05-09T18:05:18.677Z,78.09
2019-05-09T18:07:50.276Z,77.51
2019-05-09T18:10:20.797Z,78.66
2019-05-09T18:12:52.425Z,80.23
2019-05-09T18:15:22.430Z,79.54
2019-05-09T18:17:51.495Z,78.99
2019-05-09T18:20:20.774Z,79.38
2019-05-09T18:22:50.126Z,77.66
2019-05-09T18:25:21.763Z,78.63
2019-05-09T18:27:50.859Z,78.69
2019-05-09T18:30:22.846Z,78.73
2019-05-09T18:33:00.934Z,78.49
2019-05-09T18:35:33.486Z,78.66
2019-05-09T18:38:04.875Z,79.62
2019-05-09T18:40:34.016Z,80.69
2019-05-09T18:43:03.150Z,79.64
2019-05-09T18:45:32.663Z,79.63
2019-05-09T18:48:03.500Z,80.50
2019-05-09T18:50:32.575Z,81.63
2019-05-09T18:53:01.625Z,81.78
2019-05-09T18:55:31.856Z,83.03
2019-05-09T18:58:02.395Z,82.47
2019-05-09T19:00:34.453Z,82.89
2019-05-09T19:03:03.548Z,83.47
2019-05-09T19:05:32.699Z,83.20
2019-05-09T19:08:02.009Z,83.50
2019-05-09T19:10:32.388Z,83.44
2019-05-09T19:13:03.789Z,83.47
2019-05-09T19:15:39.167Z,83.56
2019-05-09T19:18:17.728Z,83.77
2019-05-09T19:21:06.037Z,83.41
2019-05-09T19:23:35.467Z,83.25
2019-05-09T19:26:08.916Z,82.20
2019-05-09T19:28:43.235Z,82.40
2019-05-09T19:31:12.327Z,82.66
2019-05-09T19:33:41.382Z,81.41
2019-05-09T19:36:10.549Z,81.69
2019-05-09T19:38:40.857Z,82.16
2019-05-09T19:41:11.046Z,82.44
2019-05-09T19:43:41.843Z,82.16
2019-05-09T19:46:11.034Z,82.46
2019-05-09T19:48:45.197Z,82.11
2019-05-09T19:51:16.815Z,82.53
2019-05-09T19:53:45.858Z,83.41
2019-05-09T19:56:15.110Z,82.82
2019-05-09T19:58:45.870Z,82.89
2019-05-09T20:01:16.247Z,83.60
2019-05-09T20:03:47.274Z,83.33
2019-05-09T20:06:16.621Z,83.82
2019-05-09T20:08:46.158Z,83.39
2019-05-09T20:11:22.028Z,83.37
2019-05-09T20:14:22.423Z,83.58
2019-05-09T20:16:55.747Z,83.25
2019-05-09T20:19:27.954Z,83.95
2019-05-09T20:21:57.300Z,83.94
2019-05-09T20:24:29.865Z,83.71
2019-05-09T20:27:00.194Z,83.45
2019-05-09T20:29:31.071Z,83.85
2019-05-09T20:32:02.537Z,83.96
2019-05-09T20:34:33.979Z,82.68
2019-05-09T20:37:04.469Z,82.61
2019-05-09T20:39:38.263Z,82.71
2019-05-09T20:42:07.521Z,81.85
2019-05-09T20:44:36.851Z,81.92
2019-05-09T20:47:09.368Z,82.02
2019-05-09T20:49:38.591Z,81.59
2019-05-09T20:52:14.493Z,81.25
2019-05-09T20:54:43.722Z,82.67
2019-05-09T20:57:17.213Z,82.39
2019-05-09T20:59:49.245Z,82.98
2019-05-09T21:02:26.204Z,83.16
2019-05-09T21:04:58.983Z,83.09
2019-05-09T21:07:29.524Z,82.49
2019-05-09T21:10:01.981Z,82.97
2019-05-09T21:12:31.236Z,82.34
2019-05-09T21:15:01.468Z,82.37
2019-05-09T21:17:33.341Z,82.63
2019-05-09T21:20:04.996Z,82.15
2019-05-09T21:22:34.270Z,82.90
2019-05-09T21:25:04.819Z,82.67
2019-05-09T21:27:34.134Z,81.40
2019-05-09T21:30:03.523Z,80.54
2019-05-09T21:32:32.801Z,81.02
2019-05-09T21:35:05.633Z,80.46
2019-05-09T21:37:35.412Z,81.56
2019-05-09T21:40:08.242Z,81.25
2019-05-09T21:42:42.651Z,82.34
2019-05-09T21:45:17.020Z,82.72
2019-05-09T21:47:47.135Z,83.37
2019-05-09T21:50:16.218Z,82.98
2019-05-09T21:52:47.041Z,83.82
2019-05-09T21:55:17.552Z,84.17
2019-05-09T21:57:50.798Z,85.02
2019-05-09T22:00:24.384Z,84.99
2019-05-09T22:02:55.155Z,84.58
2019-05-09T22:05:24.450Z,83.16
2019-05-09T22:07:54.614Z,82.88
2019-05-09T22:10:25.200Z,82.88
2019-05-09T22:12:54.286Z,82.68
2019-05-09T22:15:23.329Z,83.49
2019-05-09T22:17:52.756Z,83.17
2019-05-09T22:20:25.602Z,83.68
2019-05-09T22:22:55.951Z,83.70
2019-05-09T22:25:26.148Z,84.24
2019-05-09T22:28:01.009Z,83.89
2019-05-09T22:30:32.260Z,82.85
2019-05-09T22:33:01.315Z,83.43
2019-05-09T22:35:30.342Z,81.92
2019-05-09T22:38:01.588Z,79.89
2019-05-09T22:40:30.985Z,79.68
2019-05-09T22:43:00.043Z,79.28
2019-05-09T22:45:31.899Z,78.75
2019-05-09T22:48:04.156Z,78.55
2019-05-09T22:50:36.244Z,78.76
2019-05-09T22:53:05.409Z,77.42
2019-05-09T22:55:34.436Z,76.56
2019-05-09T22:58:03.783Z,76.99
2019-05-09T23:00:33.947Z,76.78
2019-05-09T23:03:26.616Z,76.44
2019-05-09T23:05:55.697Z,76.71
2019-05-09T23:08:24.793Z,77.29
2019-05-09T23:10:53.866Z,78.23
2019-05-09T23:13:22.945Z,78.24
2019-05-09T23:15:52.111Z,77.27
2019-05-09T23:18:21.222Z,77.77
2019-05-09T23:20:59.543Z,77.45
2019-05-09T23:23:44.081Z,77.84
2019-05-09T23:26:19.069Z,77.03
2019-05-09T23:28:48.269Z,77.30
2019-05-09T23:31:21.496Z,76.60
2019-05-09T23:33:51.743Z,76.21
2019-05-09T23:36:25.215Z,76.71
2019-05-09T23:39:18.403Z,77.72
2019-05-09T23:41:50.474Z,78.07
2019-05-09T23:44:19.626Z,77.31
2019-05-09T23:46:51.804Z,76.20
2019-05-09T23:49:24.274Z,74.58
2019-05-09T23:51:53.376Z,76.11
2019-05-09T23:54:46.735Z,76.70
2019-05-09T23:57:29.667Z,75.28
